Time;durP1;ratioP1;P1;durP2;ratioP2;P2;SDS_P1;SDS_P2;PMS_P1;PMS_P2;Temp;Humidity;BMP_temperature;BMP_pressure;BME280_temperature;BME280_humidity;BME280_pressure;Samples;Min_cycle;Max_cycle;Signal;HPM_P1;HPM_P2
2022/06/02 00:00:05;;;;;;;3.60;3.30;;;16.20;71.20;;;;;;5074472;28;21000;-70
2022/06/02 00:03:02;;;;;;;3.10;2.90;;;15.90;71.00;;;;;;5068709;28;21040;-67
2022/06/02 00:05:51;;;;;;;3.97;3.20;;;15.80;71.90;;;;;;5080566;28;20457;-67
2022/06/02 00:08:36;;;;;;;3.97;3.67;;;15.60;72.00;;;;;;5076361;28;20441;-68
2022/06/02 00:11:17;;;;;;;4.13;3.83;;;15.70;72.40;;;;;;5069893;28;20498;-68
2022/06/02 00:13:42;;;;;;;4.27;3.87;;;15.60;72.40;;;;;;5063722;28;20461;-68
2022/06/02 00:16:25;;;;;;;4.00;3.50;;;15.60;72.40;;;;;;5078227;28;20440;-67
2022/06/02 00:19:05;;;;;;;4.80;3.67;;;15.50;72.50;;;;;;5065330;28;20212;-68
2022/06/02 00:21:38;;;;;;;3.60;3.30;;;15.40;72.50;;;;;;5043716;28;20501;-69
2022/06/02 00:24:27;;;;;;;3.47;3.17;;;15.30;72.60;;;;;;5063692;28;20471;-67
2022/06/02 00:27:50;;;;;;;4.00;3.70;;;15.40;72.80;;;;;;5059384;28;20547;-68
2022/06/02 00:30:28;;;;;;;3.73;3.43;;;15.50;72.60;;;;;;5040147;28;20485;-68
2022/06/02 00:33:15;;;;;;;4.50;4.10;;;15.50;72.60;;;;;;5068881;28;20441;-67
2022/06/02 00:35:47;;;;;;;4.07;3.77;;;15.50;72.40;;;;;;5073008;28;20465;-68
2022/06/02 00:38:21;;;;;;;3.93;3.60;;;15.50;72.30;;;;;;5051418;28;20591;-68
2022/06/02 00:40:47;;;;;;;4.10;3.80;;;15.60;72.40;;;;;;5081241;28;20441;-68
2022/06/02 00:43:31;;;;;;;3.70;3.40;;;15.60;72.30;;;;;;5067568;28;20497;-67
2022/06/02 00:46:11;;;;;;;7.00;4.50;;;15.50;72.20;;;;;;5051535;28;20211;-68
2022/06/02 00:48:43;;;;;;;4.23;3.83;;;15.40;72.40;;;;;;5057410;28;20449;-70
2022/06/02 00:51:14;;;;;;;3.77;3.47;;;15.30;72.40;;;;;;5074136;28;20598;-68
2022/06/02 00:57:30;;;;;;;3.73;3.43;;;15.30;72.50;;;;;;5069878;28;20867;-67
2022/06/02 00:59:46;;;;;;;3.27;3.00;;;15.30;72.80;;;;;;5068097;28;20470;-68
2022/06/02 01:02:11;;;;;;;3.10;2.90;;;15.20;72.80;;;;;;5067799;28;20449;-67
2022/06/02 01:04:41;;;;;;;3.70;3.50;;;15.20;72.70;;;;;;5070137;28;20453;-67
2022/06/02 01:07:24;;;;;;;3.60;3.40;;;15.20;73.50;;;;;;5072835;28;20280;-67
2022/06/02 01:10:20;;;;;;;4.23;3.83;;;15.20;72.80;;;;;;5069806;28;20458;-68
2022/06/02 01:12:58;;;;;;;3.97;3.67;;;15.10;72.90;;;;;;5073477;28;20458;-69
2022/06/02 01:15:41;;;;;;;3.13;2.93;;;15.10;73.20;;;;;;5063230;28;20456;-68
2022/06/02 01:18:33;;;;;;;3.30;3.00;;;15.00;73.10;;;;;;5054659;28;20912;-68
2022/06/02 01:21:17;;;;;;;3.77;3.47;;;15.10;73.20;;;;;;5069928;28;20536;-66
2022/06/02 01:23:42;;;;;;;5.20;3.70;;;15.10;73.40;;;;;;5087395;28;20457;-70
2022/06/02 01:26:17;;;;;;;3.20;2.90;;;15.00;73.20;;;;;;5072372;28;21024;-68
2022/06/02 01:29:16;;;;;;;4.30;3.63;;;15.00;73.30;;;;;;5066640;28;20363;-69
2022/06/02 01:32:04;;;;;;;3.87;3.40;;;15.00;73.20;;;;;;5077916;28;20453;-67
2022/06/02 01:34:50;;;;;;;3.90;3.60;;;14.90;73.30;;;;;;5084141;28;21171;-67
2022/06/02 01:37:28;;;;;;;3.43;3.23;;;14.90;73.80;;;;;;5072170;28;20803;-68
2022/06/02 01:40:11;;;;;;;3.30;3.10;;;14.80;73.80;;;;;;5076222;28;20453;-68
2022/06/02 01:42:42;;;;;;;3.80;3.50;;;14.80;73.80;;;;;;5070589;28;21078;-68
2022/06/02 01:45:22;;;;;;;4.40;3.97;;;14.80;73.90;;;;;;5079260;28;20464;-68
2022/06/02 01:48:01;;;;;;;3.53;3.23;;;14.80;74.00;;;;;;5076770;28;20441;-68
2022/06/02 01:50:46;;;;;;;3.40;3.10;;;14.80;73.70;;;;;;5058765;28;20445;-68
2022/06/02 01:53:18;;;;;;;3.00;2.80;;;14.80;73.90;;;;;;5075338;28;20452;-68
2022/06/02 01:56:14;;;;;;;3.80;3.40;;;14.80;73.80;;;;;;5072668;28;21000;-67
2022/06/02 01:58:49;;;;;;;3.27;3.07;;;14.70;73.90;;;;;;5072763;28;20445;-68
2022/06/02 02:01:14;;;;;;;3.47;3.17;;;14.70;74.00;;;;;;5070776;28;20464;-67
2022/06/02 02:03:59;;;;;;;3.53;3.23;;;14.70;74.10;;;;;;5070543;28;20992;-69
2022/06/02 02:06:56;;;;;;;4.17;3.57;;;14.60;74.20;;;;;;5072472;28;20305;-68
2022/06/02 02:09:39;;;;;;;3.70;3.40;;;14.40;74.50;;;;;;5069076;28;20637;-67
2022/06/02 02:12:13;;;;;;;3.70;3.40;;;14.30;74.50;;;;;;5052212;28;20527;-68
2022/06/02 02:14:44;;;;;;;3.73;3.43;;;14.30;74.70;;;;;;5070533;28;20495;-68
2022/06/02 02:17:13;;;;;;;3.53;3.23;;;14.30;74.90;;;;;;5069650;28;20518;-69
2022/06/02 02:19:58;;;;;;;4.80;3.67;;;14.20;74.50;;;;;;5070273;28;20544;-69
2022/06/02 02:22:43;;;;;;;4.50;4.10;;;14.30;74.60;;;;;;5070695;28;20989;-67
2022/06/02 02:25:23;;;;;;;3.73;3.43;;;14.30;74.40;;;;;;5079404;28;20869;-67
2022/06/02 02:28:04;;;;;;;4.00;3.70;;;14.30;74.60;;;;;;5069891;28;20849;-69
2022/06/02 02:30:47;;;;;;;7.63;4.33;;;14.30;74.70;;;;;;5071180;28;20469;-68
2022/06/02 02:33:46;;;;;;;5.03;4.30;;;14.20;74.40;;;;;;5072988;28;20494;-68
2022/06/02 02:36:27;;;;;;;4.67;4.23;;;14.20;74.60;;;;;;5071234;28;20477;-68
2022/06/02 02:39:14;;;;;;;4.53;3.97;;;14.20;74.90;;;;;;5066368;28;20529;-68
2022/06/02 02:42:00;;;;;;;5.33;4.10;;;14.20;74.80;;;;;;5077220;28;20532;-67
2022/06/02 02:45:04;;;;;;;5.70;3.77;;;14.20;74.60;;;;;;5067523;28;20472;-67
2022/06/02 02:47:43;;;;;;;3.53;3.23;;;14.20;74.90;;;;;;5069514;28;20495;-68
2022/06/02 02:50:30;;;;;;;4.00;3.70;;;14.10;74.70;;;;;;5049810;28;20466;-67
2022/06/02 02:52:56;;;;;;;4.70;4.13;;;14.00;74.50;;;;;;5066396;28;20456;-68
2022/06/02 02:55:35;;;;;;;4.13;3.80;;;13.90;75.00;;;;;;5066958;28;20447;-68
2022/06/02 02:58:10;;;;;;;4.63;4.10;;;14.00;75.10;;;;;;5068404;28;20442;-67
2022/06/02 03:00:45;;;;;;;4.10;3.60;;;14.00;75.10;;;;;;5070903;28;20440;-68
2022/06/02 03:03:22;;;;;;;4.83;4.40;;;13.90;75.00;;;;;;5071791;28;20560;-70
2022/06/02 03:06:08;;;;;;;5.13;4.63;;;13.90;75.80;;;;;;5069704;28;20449;-68
2022/06/02 03:09:05;;;;;;;4.17;3.77;;;13.90;75.60;;;;;;5061639;28;20529;-68
2022/06/02 03:11:53;;;;;;;5.53;3.90;;;13.80;75.60;;;;;;5083253;28;20821;-68
2022/06/02 03:14:36;;;;;;;4.77;4.37;;;13.80;75.30;;;;;;5069788;28;20466;-67
2022/06/02 03:17:23;;;;;;;7.43;4.20;;;13.80;75.40;;;;;;5068327;28;20942;-68
2022/06/02 03:20:01;;;;;;;6.00;4.10;;;13.80;75.20;;;;;;5068649;28;20460;-67
2022/06/02 03:22:48;;;;;;;4.87;4.37;;;13.80;75.40;;;;;;5070418;28;20456;-67
2022/06/02 03:25:41;;;;;;;4.30;3.80;;;13.70;75.30;;;;;;5069467;28;20441;-68
2022/06/02 03:28:15;;;;;;;3.67;3.37;;;13.70;75.20;;;;;;5092155;28;20473;-67
2022/06/02 03:31:02;;;;;;;3.80;3.50;;;13.70;75.20;;;;;;5083672;28;20981;-67
2022/06/02 03:33:52;;;;;;;6.47;3.73;;;13.60;75.40;;;;;;5066643;28;20950;-69
2022/06/02 03:36:44;;;;;;;3.73;3.43;;;13.70;75.50;;;;;;5060329;28;20444;-67
2022/06/02 03:39:40;;;;;;;3.60;3.30;;;13.70;75.50;;;;;;5068882;28;20446;-67
2022/06/02 03:42:30;;;;;;;3.70;3.40;;;13.60;75.00;;;;;;5066452;28;20454;-67
2022/06/02 03:45:15;;;;;;;4.77;3.67;;;13.60;75.20;;;;;;5071037;28;20450;-66
2022/06/02 03:47:51;;;;;;;3.43;3.13;;;13.60;75.40;;;;;;5066865;28;20492;-68
2022/06/02 03:50:26;;;;;;;5.00;3.93;;;13.50;75.40;;;;;;5051948;28;20449;-69
2022/06/02 03:53:17;;;;;;;5.57;4.50;;;13.50;75.50;;;;;;5069390;28;20455;-70
2022/06/02 03:56:07;;;;;;;4.37;3.77;;;13.50;75.40;;;;;;5070046;28;20961;-67
2022/06/02 03:58:59;;;;;;;4.43;4.13;;;13.50;75.60;;;;;;5072002;28;20444;-67
2022/06/02 04:01:31;;;;;;;3.93;3.63;;;13.50;75.90;;;;;;5058199;28;20808;-66
2022/06/02 04:04:19;;;;;;;5.27;4.00;;;13.40;76.20;;;;;;5069018;28;20465;-67
2022/06/02 04:06:57;;;;;;;4.10;3.80;;;13.40;76.10;;;;;;5069401;28;20476;-67
2022/06/02 04:09:42;;;;;;;3.73;3.43;;;13.40;76.10;;;;;;5068004;28;20484;-67
2022/06/02 04:15:36;;;;;;;3.37;3.13;;;13.40;76.40;;;;;;5055845;28;20463;-67
2022/06/02 04:18:16;;;;;;;4.47;4.07;;;13.40;76.40;;;;;;5057874;28;21044;-68
2022/06/02 04:20:41;;;;;;;4.57;4.23;;;13.40;76.40;;;;;;5078453;28;20472;-67
2022/06/02 04:23:41;;;;;;;4.40;4.00;;;13.40;76.50;;;;;;5071546;28;21080;-68
2022/06/02 04:26:13;;;;;;;4.10;3.70;;;13.40;76.60;;;;;;5055363;28;20216;-67
2022/06/02 04:29:05;;;;;;;4.20;3.73;;;13.40;76.90;;;;;;5076550;28;20510;-67
2022/06/02 04:31:46;;;;;;;4.27;3.87;;;13.40;77.00;;;;;;5069752;28;21013;-68
2022/06/02 04:34:48;;;;;;;4.23;3.83;;;13.40;77.90;;;;;;5077716;28;20487;-67
2022/06/02 04:37:38;;;;;;;3.87;3.57;;;13.30;79.10;;;;;;5072072;28;20475;-68
2022/06/02 04:40:27;;;;;;;9.57;3.87;;;13.40;78.20;;;;;;5071442;28;20503;-68
2022/06/02 04:43:02;;;;;;;8.10;4.17;;;13.40;77.90;;;;;;5050347;28;20837;-69
2022/06/02 04:45:43;;;;;;;4.17;3.60;;;13.40;78.50;;;;;;5066993;28;20445;-68
2022/06/02 04:48:18;;;;;;;4.30;3.90;;;13.40;78.70;;;;;;5068090;28;20450;-68
2022/06/02 04:50:55;;;;;;;4.57;3.50;;;13.40;79.40;;;;;;5070805;28;20503;-72
2022/06/02 04:53:24;;;;;;;5.47;4.20;;;13.40;78.80;;;;;;5073533;28;20453;-68
2022/06/02 04:56:33;;;;;;;5.30;4.80;;;13.50;78.30;;;;;;5069429;28;20488;-68
2022/06/02 04:59:10;;;;;;;4.23;3.83;;;13.50;80.50;;;;;;5030634;28;20815;-67
2022/06/02 05:01:48;;;;;;;4.90;4.50;;;13.60;79.60;;;;;;5076996;28;20890;-68
2022/06/02 05:04:35;;;;;;;4.67;4.10;;;13.60;79.50;;;;;;5068030;28;20457;-68
2022/06/02 05:07:12;;;;;;;5.03;4.57;;;13.70;81.90;;;;;;5064180;28;20492;-68
2022/06/02 05:10:00;;;;;;;5.23;4.73;;;13.70;82.00;;;;;;5053008;28;20471;-67
2022/06/02 05:12:53;;;;;;;4.77;4.37;;;13.70;81.60;;;;;;5070078;28;20445;-68
2022/06/02 05:15:49;;;;;;;4.57;4.07;;;13.80;81.20;;;;;;5067257;28;20498;-67
2022/06/02 05:19:12;;;;;;;5.03;4.33;;;13.80;81.60;;;;;;5064870;28;20523;-67
2022/06/02 05:22:07;;;;;;;5.70;4.07;;;13.80;81.40;;;;;;5017454;28;20959;-67
2022/06/02 05:25:14;;;;;;;4.23;3.83;;;13.80;81.40;;;;;;5029592;28;20474;-67
2022/06/02 05:27:52;;;;;;;4.47;3.97;;;13.90;80.90;;;;;;5062300;28;20487;-69
2022/06/02 05:30:36;;;;;;;3.93;3.63;;;13.80;82.80;;;;;;5054511;28;20814;-70
2022/06/02 05:33:06;;;;;;;5.13;3.53;;;13.90;81.40;;;;;;5071274;28;20437;-67
2022/06/02 05:35:59;;;;;;;3.93;3.60;;;13.90;81.30;;;;;;5085294;28;20434;-68
2022/06/02 05:38:59;;;;;;;4.30;3.87;;;13.90;80.90;;;;;;5067622;28;20481;-67
2022/06/02 05:41:37;;;;;;;4.10;3.70;;;14.00;81.00;;;;;;5067798;28;20450;-66
2022/06/02 05:44:46;;;;;;;6.77;3.40;;;14.00;82.00;;;;;;5067187;28;20553;-67
2022/06/02 05:47:22;;;;;;;3.70;3.40;;;14.10;82.20;;;;;;5064504;28;20442;-67
2022/06/02 05:50:24;;;;;;;3.77;3.43;;;14.20;82.90;;;;;;5060688;28;20446;-69
2022/06/02 05:53:08;;;;;;;5.93;4.17;;;14.30;84.20;;;;;;5075023;28;20915;-68
2022/06/02 05:56:03;;;;;;;4.37;4.00;;;14.30;83.80;;;;;;5045358;28;20486;-69
2022/06/02 05:58:50;;;;;;;4.53;4.10;;;14.40;84.00;;;;;;5064086;28;20500;-68
2022/06/02 06:01:42;;;;;;;4.40;4.00;;;14.50;84.00;;;;;;5064730;28;20458;-68
2022/06/02 06:04:08;;;;;;;5.10;4.30;;;14.60;84.60;;;;;;5049496;28;20466;-69
2022/06/02 06:06:53;;;;;;;5.13;3.50;;;14.60;86.20;;;;;;5065010;28;20514;-70
2022/06/02 06:09:45;;;;;;;10.07;3.57;;;14.70;86.20;;;;;;5064047;28;20268;-68
2022/06/02 06:12:23;;;;;;;3.30;3.10;;;14.70;86.00;;;;;;5061286;28;20458;-69
2022/06/02 06:15:22;;;;;;;3.90;3.60;;;14.80;86.20;;;;;;5056636;28;20751;-68
2022/06/02 06:18:06;;;;;;;3.93;3.53;;;14.90;86.80;;;;;;5057180;28;20508;-70
2022/06/02 06:20:49;;;;;;;3.90;3.60;;;14.90;87.40;;;;;;5079227;28;20527;-69
2022/06/02 06:23:28;;;;;;;5.60;4.60;;;15.00;86.20;;;;;;5065864;28;20472;-69
2022/06/02 06:26:27;;;;;;;3.93;3.63;;;15.10;86.70;;;;;;5063809;28;20978;-68
2022/06/02 06:29:02;;;;;;;4.83;3.97;;;15.20;87.00;;;;;;5051252;28;20516;-69
2022/06/02 06:31:34;;;;;;;4.70;3.30;;;15.20;87.20;;;;;;5063057;28;20449;-68
2022/06/02 06:34:18;;;;;;;4.40;3.70;;;15.30;86.90;;;;;;5064727;28;20453;-68
2022/06/02 06:36:59;;;;;;;3.77;3.37;;;15.40;87.40;;;;;;5060876;28;21054;-69
2022/06/02 06:39:56;;;;;;;5.10;3.73;;;15.50;88.00;;;;;;5063709;28;20445;-68
2022/06/02 06:43:03;;;;;;;4.57;4.17;;;15.50;88.20;;;;;;5067949;28;20528;-67
2022/06/02 06:46:09;;;;;;;4.53;4.13;;;15.50;86.60;;;;;;5046299;28;20890;-66
2022/06/02 06:48:43;;;;;;;3.50;3.20;;;15.60;87.60;;;;;;5030304;28;20808;-68
2022/06/02 06:51:50;;;;;;;4.33;3.93;;;15.70;88.70;;;;;;5054735;28;20477;-67
2022/06/02 06:54:53;;;;;;;6.40;4.50;;;15.90;89.20;;;;;;5060104;28;21004;-68
2022/06/02 06:57:27;;;;;;;5.50;4.10;;;16.00;89.50;;;;;;5060060;28;20454;-68
2022/06/02 07:00:22;;;;;;;4.70;4.33;;;16.10;89.20;;;;;;5058909;28;20617;-67
2022/06/02 07:03:25;;;;;;;4.50;3.40;;;16.20;89.30;;;;;;5064013;28;20994;-69
2022/06/02 07:06:02;;;;;;;4.80;4.40;;;16.40;89.40;;;;;;5066307;28;20449;-67
2022/06/02 07:08:36;;;;;;;4.23;3.83;;;16.40;89.00;;;;;;5064804;28;20926;-68
2022/06/02 07:14:17;;;;;;;7.83;4.37;;;16.60;90.00;;;;;;5073406;28;20518;-71
2022/06/02 07:16:58;;;;;;;4.83;4.43;;;16.80;89.70;;;;;;5049154;28;20433;-68
2022/06/02 07:19:43;;;;;;;4.80;4.40;;;16.80;88.30;;;;;;5070356;28;20469;-68
2022/06/02 07:22:23;;;;;;;4.80;4.30;;;16.90;89.20;;;;;;5067309;28;20548;-68
2022/06/02 07:25:17;;;;;;;5.00;4.50;;;17.00;88.80;;;;;;5078350;28;20854;-70
2022/06/02 07:27:48;;;;;;;4.17;3.80;;;17.10;88.40;;;;;;5058707;28;20477;-69
2022/06/02 07:30:17;;;;;;;10.17;4.77;;;17.10;88.40;;;;;;5053779;28;20580;-68
2022/06/02 07:33:04;;;;;;;5.50;5.00;;;17.20;88.40;;;;;;5043758;28;20451;-68
2022/06/02 07:36:02;;;;;;;5.27;4.57;;;17.30;87.80;;;;;;5032756;28;20451;-69
2022/06/02 07:38:53;;;;;;;5.83;4.33;;;17.40;87.30;;;;;;5065579;28;21032;-69
2022/06/02 07:41:39;;;;;;;5.63;4.30;;;17.50;86.80;;;;;;5064862;28;20451;-68
2022/06/02 07:44:52;;;;;;;5.07;4.57;;;17.60;86.80;;;;;;5043953;28;20497;-69
2022/06/02 07:47:58;;;;;;;5.87;4.60;;;17.70;86.50;;;;;;5047432;28;20958;-69
2022/06/02 07:50:35;;;;;;;5.43;4.93;;;17.80;86.50;;;;;;5058396;28;20485;-68
2022/06/02 07:53:17;;;;;;;5.10;4.60;;;18.00;86.20;;;;;;5042199;28;20450;-70
2022/06/02 07:56:07;;;;;;;5.60;5.10;;;18.20;85.10;;;;;;5065561;28;20459;-69
2022/06/02 07:59:04;;;;;;;4.87;4.20;;;18.30;84.70;;;;;;5065089;28;20449;-68
2022/06/02 08:01:33;;;;;;;5.73;5.13;;;18.40;84.00;;;;;;5060658;28;20542;-69
2022/06/02 08:04:04;;;;;;;5.13;4.63;;;18.30;83.80;;;;;;5052117;28;20465;-69
2022/06/02 08:06:44;;;;;;;4.40;4.00;;;18.30;83.80;;;;;;5073691;28;20465;-68
2022/06/02 08:09:29;;;;;;;4.30;3.90;;;18.30;83.50;;;;;;5050271;28;20450;-72
2022/06/02 08:11:57;;;;;;;4.77;3.70;;;18.50;82.20;;;;;;5064876;28;20596;-68
2022/06/02 08:15:01;;;;;;;4.90;4.13;;;18.50;82.80;;;;;;5055751;28;20454;-70
2022/06/02 08:17:55;;;;;;;5.67;4.70;;;18.50;82.70;;;;;;5044428;28;20454;-69
2022/06/02 08:20:54;;;;;;;4.90;4.47;;;18.50;81.50;;;;;;5058656;28;20882;-71
2022/06/02 08:23:25;;;;;;;4.80;3.97;;;18.60;82.60;;;;;;5064277;28;20472;-68
2022/06/02 08:25:57;;;;;;;5.27;4.60;;;18.80;81.80;;;;;;5064281;28;20510;-69
2022/06/02 08:28:45;;;;;;;4.30;3.90;;;18.90;82.10;;;;;;5063013;28;20452;-69
2022/06/02 08:31:38;;;;;;;4.03;3.63;;;19.00;81.90;;;;;;5080750;28;20618;-68
2022/06/02 08:34:06;;;;;;;3.87;3.57;;;19.10;81.50;;;;;;5054809;28;20450;-68
2022/06/02 08:36:44;;;;;;;4.13;3.77;;;19.20;80.90;;;;;;5064825;28;20977;-71
2022/06/02 08:39:47;;;;;;;3.70;3.33;;;19.20;80.80;;;;;;5056444;28;20449;-70
2022/06/02 08:42:40;;;;;;;3.67;3.37;;;19.30;80.50;;;;;;5068996;28;20535;-69
2022/06/02 08:45:24;;;;;;;5.43;3.47;;;19.40;80.30;;;;;;5057387;28;20541;-68
2022/06/02 08:48:31;;;;;;;4.60;3.67;;;19.40;80.30;;;;;;5073521;28;20803;-68
2022/06/02 08:51:27;;;;;;;6.40;5.07;;;19.40;80.20;;;;;;5045857;28;21157;-68
2022/06/02 08:54:17;;;;;;;4.97;4.10;;;19.50;78.60;;;;;;5056011;28;20458;-69
2022/06/02 08:57:03;;;;;;;3.57;3.27;;;19.60;79.10;;;;;;5072445;28;20465;-69
2022/06/02 09:00:13;;;;;;;3.87;3.57;;;19.60;78.90;;;;;;5061819;28;20456;-68
2022/06/02 09:02:50;;;;;;;3.70;3.40;;;19.70;79.40;;;;;;5047035;28;20595;-69
2022/06/02 09:05:53;;;;;;;3.23;2.93;;;19.90;78.50;;;;;;5057341;28;20458;-69
2022/06/02 09:08:19;;;;;;;3.40;3.10;;;19.90;77.40;;;;;;5064131;28;20445;-67
2022/06/02 09:11:29;;;;;;;5.00;4.60;;;20.10;78.30;;;;;;5057331;28;20470;-69
2022/06/02 09:14:33;;;;;;;4.77;4.03;;;20.30;76.80;;;;;;5051940;28;20233;-69
2022/06/02 09:17:25;;;;;;;5.30;4.80;;;20.40;76.20;;;;;;5043093;28;20465;-68
2022/06/02 09:20:16;;;;;;;6.03;3.80;;;20.40;76.00;;;;;;5058953;28;20454;-69
2022/06/02 09:23:03;;;;;;;3.93;3.63;;;20.20;74.80;;;;;;5061272;28;20446;-68
2022/06/02 09:25:41;;;;;;;3.40;2.93;;;20.10;75.00;;;;;;5054617;28;20458;-68
2022/06/02 09:28:35;;;;;;;3.90;3.60;;;20.20;75.40;;;;;;5062754;28;20484;-69
2022/06/02 09:31:12;;;;;;;3.17;2.90;;;20.30;75.40;;;;;;5071946;28;20499;-71
2022/06/02 09:34:07;;;;;;;4.17;3.40;;;20.40;75.50;;;;;;5076654;28;20453;-67
2022/06/02 09:36:55;;;;;;;4.37;3.43;;;20.40;75.20;;;;;;5065787;28;20479;-69
2022/06/02 09:39:39;;;;;;;3.87;3.57;;;20.50;74.30;;;;;;5053885;28;20456;-68
2022/06/02 09:42:20;;;;;;;4.50;4.10;;;20.60;73.70;;;;;;5070918;28;21079;-69
2022/06/02 09:45:13;;;;;;;3.40;3.10;;;20.60;73.10;;;;;;5047133;28;20857;-69
2022/06/02 09:47:38;;;;;;;4.03;3.63;;;20.70;73.80;;;;;;5067270;28;20476;-69
2022/06/02 09:50:19;;;;;;;3.10;2.90;;;20.80;73.70;;;;;;5061479;28;20972;-68
2022/06/02 09:53:19;;;;;;;4.83;3.70;;;21.00;73.30;;;;;;5059967;28;20215;-69
2022/06/02 09:56:09;;;;;;;4.27;3.33;;;21.20;72.70;;;;;;5063083;28;20457;-68
2022/06/02 09:58:47;;;;;;;4.33;3.90;;;21.30;73.30;;;;;;5058376;28;20588;-68
2022/06/02 10:01:38;;;;;;;5.60;4.70;;;21.40;72.90;;;;;;5060985;28;20453;-68
2022/06/02 10:04:14;;;;;;;5.60;5.00;;;21.40;72.50;;;;;;5071076;28;20907;-69
2022/06/02 10:07:24;;;;;;;5.30;4.80;;;21.30;72.40;;;;;;5065845;28;20982;-70
2022/06/02 10:10:27;;;;;;;4.70;4.30;;;21.20;72.20;;;;;;5055737;28;20445;-69
2022/06/02 10:13:30;;;;;;;3.97;3.53;;;21.20;71.60;;;;;;5075198;28;20442;-68
2022/06/02 10:16:17;;;;;;;3.83;3.53;;;21.30;71.60;;;;;;5068307;28;20465;-69
2022/06/02 10:19:24;;;;;;;3.43;3.23;;;21.40;71.30;;;;;;5064981;28;20449;-70
2022/06/02 10:22:10;;;;;;;3.23;3.03;;;21.40;71.70;;;;;;5064164;28;20989;-68
2022/06/02 10:24:46;;;;;;;3.00;2.80;;;21.40;71.30;;;;;;5064765;28;20461;-69
2022/06/02 10:27:21;;;;;;;4.73;4.00;;;21.50;71.40;;;;;;5057865;28;20456;-72
2022/06/02 10:29:56;;;;;;;3.50;3.20;;;21.40;71.40;;;;;;5075855;28;20460;-70
2022/06/02 10:32:50;;;;;;;2.83;2.60;;;21.40;71.20;;;;;;5048595;28;20540;-68
2022/06/02 10:35:50;;;;;;;3.20;2.90;;;21.50;71.30;;;;;;5066112;28;20510;-67
2022/06/02 10:38:29;;;;;;;2.87;2.67;;;21.50;71.10;;;;;;5064734;28;20468;-68
2022/06/02 10:41:10;;;;;;;3.80;3.50;;;21.50;70.90;;;;;;5060201;28;20499;-69
2022/06/02 10:43:51;;;;;;;3.37;3.10;;;21.50;70.10;;;;;;5062373;28;20487;-70
2022/06/02 10:46:31;;;;;;;3.93;3.57;;;21.60;70.30;;;;;;5064529;28;20457;-68
2022/06/02 10:49:15;;;;;;;4.80;2.77;;;21.60;70.20;;;;;;5051341;28;20461;-70
2022/06/02 10:52:25;;;;;;;3.23;2.90;;;21.70;70.40;;;;;;5080869;28;20510;-68
2022/06/02 10:55:25;;;;;;;2.93;2.73;;;21.70;69.60;;;;;;5068706;28;20461;-68
2022/06/02 10:58:06;;;;;;;2.60;2.40;;;21.90;69.10;;;;;;5061393;28;20992;-69
2022/06/02 11:00:51;;;;;;;2.90;2.50;;;21.90;68.70;;;;;;5059349;28;20469;-71
2022/06/02 11:03:20;;;;;;;3.30;3.00;;;21.90;69.30;;;;;;5058014;28;20477;-70
2022/06/02 11:06:16;;;;;;;2.67;2.47;;;22.00;69.40;;;;;;5047621;28;20452;-68
2022/06/02 11:08:50;;;;;;;3.50;3.17;;;22.10;69.30;;;;;;5066201;28;20449;-69
2022/06/02 11:11:41;;;;;;;3.67;3.37;;;22.20;69.30;;;;;;5058705;28;20464;-69
2022/06/02 11:14:19;;;;;;;3.27;3.00;;;22.30;69.10;;;;;;5064546;28;20450;-68
2022/06/02 11:17:14;;;;;;;3.30;3.10;;;22.10;69.00;;;;;;5056910;28;20454;-70
2022/06/02 11:20:01;;;;;;;3.13;2.83;;;22.20;68.70;;;;;;5061000;28;20441;-68
2022/06/02 11:23:09;;;;;;;3.10;2.73;;;22.30;67.90;;;;;;5056588;28;20487;-69
2022/06/02 11:25:48;;;;;;;6.40;2.70;;;22.50;69.00;;;;;;5056104;28;20526;-70
2022/06/02 11:28:31;;;;;;;2.90;2.60;;;22.50;68.10;;;;;;5060043;28;20445;-68
2022/06/02 11:31:16;;;;;;;2.90;2.70;;;22.50;67.10;;;;;;5068576;28;20941;-67
2022/06/02 11:33:48;;;;;;;2.90;2.70;;;22.40;67.60;;;;;;5058663;28;20948;-68
2022/06/02 11:36:44;;;;;;;3.10;2.83;;;22.40;68.40;;;;;;5061704;28;20513;-69
2022/06/02 11:39:27;;;;;;;3.07;2.83;;;22.60;68.50;;;;;;5072569;28;20514;-68
2022/06/02 11:42:15;;;;;;;2.60;2.23;;;22.80;67.00;;;;;;5062302;28;20452;-71
2022/06/02 11:45:10;;;;;;;2.80;2.60;;;22.80;66.90;;;;;;5063823;28;20556;-68
2022/06/02 11:47:53;;;;;;;3.17;2.97;;;22.90;66.90;;;;;;5060555;28;20956;-71
2022/06/02 11:50:19;;;;;;;2.80;2.60;;;22.70;65.50;;;;;;5063205;28;20457;-68
2022/06/02 11:53:12;;;;;;;2.63;2.43;;;22.70;66.40;;;;;;5056007;28;20571;-69
2022/06/02 11:55:42;;;;;;;2.53;2.33;;;22.90;66.10;;;;;;5057734;28;20991;-69
2022/06/02 11:58:19;;;;;;;2.63;2.47;;;23.10;64.50;;;;;;5055198;28;20465;-69
2022/06/02 12:00:50;;;;;;;2.60;2.40;;;23.20;64.80;;;;;;5058097;28;20477;-68
2022/06/02 12:03:33;;;;;;;1.97;1.87;;;23.30;63.90;;;;;;5071425;28;20464;-67
2022/06/02 12:06:10;;;;;;;2.77;2.57;;;23.30;63.80;;;;;;5063787;28;20465;-68
2022/06/02 12:08:55;;;;;;;2.67;2.47;;;23.20;62.20;;;;;;5061221;28;20482;-68
2022/06/02 12:11:42;;;;;;;2.53;2.33;;;23.00;61.80;;;;;;5067959;28;20456;-67
2022/06/02 12:14:22;;;;;;;2.90;2.70;;;22.80;62.90;;;;;;5062623;28;20865;-68
2022/06/02 12:16:50;;;;;;;3.23;2.50;;;22.90;64.20;;;;;;5080776;28;20457;-69
2022/06/02 12:19:20;;;;;;;3.17;2.60;;;23.00;64.00;;;;;;5058138;28;20527;-70
2022/06/02 12:22:00;;;;;;;2.93;2.73;;;22.90;63.80;;;;;;5059044;28;20472;-68
2022/06/02 12:24:35;;;;;;;3.20;2.30;;;22.90;63.10;;;;;;5067418;28;20463;-70
2022/06/02 12:27:28;;;;;;;2.50;2.30;;;22.90;62.90;;;;;;5054661;28;20460;-69
2022/06/02 12:30:03;;;;;;;3.03;2.80;;;23.00;63.30;;;;;;5072753;28;20504;-68
2022/06/02 12:32:35;;;;;;;2.37;2.17;;;23.10;63.20;;;;;;5068025;28;20454;-70
2022/06/02 12:35:11;;;;;;;3.00;2.80;;;23.30;64.30;;;;;;5071607;28;20462;-70
2022/06/02 12:37:46;;;;;;;2.87;2.67;;;23.50;64.40;;;;;;5068954;28;20460;-69
2022/06/02 12:40:35;;;;;;;2.63;2.43;;;23.70;62.80;;;;;;5057354;28;20519;-68
2022/06/02 12:43:20;;;;;;;2.63;2.43;;;23.70;62.10;;;;;;5060827;28;20466;-69
2022/06/02 12:45:53;;;;;;;2.90;2.50;;;23.70;61.80;;;;;;5060630;28;20467;-68
2022/06/02 12:48:44;;;;;;;2.50;2.30;;;23.70;62.00;;;;;;5047035;28;20468;-72
2022/06/02 12:51:27;;;;;;;2.03;1.93;;;23.40;59.70;;;;;;5063417;28;20931;-71
2022/06/02 12:54:17;;;;;;;2.47;2.30;;;23.60;61.60;;;;;;5055002;28;20453;-67
2022/06/02 12:57:04;;;;;;;2.00;1.90;;;23.50;60.00;;;;;;5063073;28;20499;-68
2022/06/02 12:59:55;;;;;;;3.17;2.97;;;23.70;60.30;;;;;;5060653;28;20541;-69
2022/06/02 13:02:35;;;;;;;3.57;3.27;;;23.60;60.50;;;;;;5043558;28;20461;-70
2022/06/02 13:05:01;;;;;;;4.10;2.50;;;23.50;61.40;;;;;;5051221;28;20468;-69
2022/06/02 13:07:35;;;;;;;4.23;2.80;;;23.40;61.10;;;;;;5061912;28;20860;-70
2022/06/02 13:10:09;;;;;;;2.87;2.67;;;23.20;61.30;;;;;;5081763;28;20237;-69
2022/06/02 13:13:09;;;;;;;2.83;2.50;;;23.20;61.80;;;;;;5065018;28;20466;-69
2022/06/02 13:16:00;;;;;;;2.73;2.53;;;23.40;61.10;;;;;;5065917;28;20490;-68
2022/06/02 13:18:29;;;;;;;2.80;2.60;;;23.20;60.70;;;;;;5063064;28;20453;-71
2022/06/02 13:21:28;;;;;;;3.00;2.80;;;23.30;59.90;;;;;;5063471;28;20446;-71
2022/06/02 13:24:19;;;;;;;3.00;2.57;;;23.40;60.90;;;;;;5062934;28;20497;-67
2022/06/02 13:27:20;;;;;;;2.53;2.33;;;23.70;62.70;;;;;;5081997;28;20475;-70
2022/06/02 13:30:08;;;;;;;2.63;2.43;;;23.80;60.90;;;;;;5060513;28;20539;-69
2022/06/02 13:32:59;;;;;;;3.70;2.30;;;23.50;60.10;;;;;;5067977;28;20476;-70
2022/06/02 13:35:41;;;;;;;3.10;2.10;;;23.60;59.70;;;;;;5061828;28;20460;-69
2022/06/02 13:38:18;;;;;;;2.67;2.13;;;23.90;61.80;;;;;;5063967;28;20448;-69
2022/06/02 13:41:21;;;;;;;2.20;2.10;;;23.90;59.50;;;;;;5065425;28;20448;-68
2022/06/02 13:44:09;;;;;;;2.23;2.10;;;24.00;60.30;;;;;;5063208;28;20492;-71
2022/06/02 13:47:12;;;;;;;2.60;2.40;;;23.70;59.80;;;;;;5063562;28;20463;-68
2022/06/02 13:50:10;;;;;;;2.30;2.20;;;23.70;59.90;;;;;;5071660;28;20471;-70
2022/06/02 13:52:42;;;;;;;2.53;2.27;;;23.40;59.60;;;;;;5059275;28;20476;-68
2022/06/02 13:58:27;;;;;;;3.73;2.17;;;23.40;59.50;;;;;;5062005;28;20463;-69
2022/06/02 14:00:56;;;;;;;3.30;2.10;;;23.40;59.40;;;;;;5063992;28;21040;-68
2022/06/02 14:03:59;;;;;;;2.03;1.93;;;23.60;59.30;;;;;;5077178;28;20467;-68
2022/06/02 14:06:27;;;;;;;2.10;1.90;;;23.70;59.60;;;;;;5064044;28;20453;-71
2022/06/02 14:09:14;;;;;;;4.83;1.80;;;24.00;59.70;;;;;;5058068;28;20471;-68
2022/06/02 14:11:51;;;;;;;1.80;1.70;;;24.30;59.20;;;;;;5054728;28;21126;-68
2022/06/02 14:14:44;;;;;;;1.93;1.83;;;24.50;59.00;;;;;;5066571;28;20505;-70
2022/06/02 14:17:28;;;;;;;2.50;2.03;;;24.60;57.90;;;;;;5058790;28;20814;-68
2022/06/02 14:20:18;;;;;;;1.53;1.43;;;24.60;58.20;;;;;;5053702;28;20460;-68
2022/06/02 14:22:50;;;;;;;1.77;1.67;;;24.50;56.60;;;;;;5072007;28;20450;-68
2022/06/02 14:25:15;;;;;;;2.87;1.40;;;24.40;57.00;;;;;;5061529;28;20536;-68
2022/06/02 14:27:44;;;;;;;3.43;1.60;;;24.30;55.30;;;;;;5067492;28;20528;-69
2022/06/02 14:30:16;;;;;;;1.60;1.50;;;24.40;55.50;;;;;;5072819;28;20772;-68